Time;durP1;ratioP1;P1;durP2;ratioP2;P2;SDS_P1;SDS_P2;PMS_P1;PMS_P2;Temp;Humidity;BMP_temperature;BMP_pressure;BME280_temperature;BME280_humidity;BME280_pressure;Samples;Min_cycle;Max_cycle;Signal;HPM_P1;HPM_P2
2022/09/24 00:00:43;;;;;;;18.02;11.75;;;;;;;9.29;93.41;100492.78;4929857;29;20409;-75
2022/09/24 00:03:08;;;;;;;22.55;13.80;;;;;;;9.30;92.69;100487.53;4941484;28;20040;-75
2022/09/24 00:05:38;;;;;;;17.42;11.65;;;;;;;9.24;93.09;100490.16;4925424;29;20123;-75
2022/09/24 00:08:05;;;;;;;20.08;10.98;;;;;;;9.21;92.86;100488.41;4931768;29;20055;-75
2022/09/24 00:10:30;;;;;;;15.02;11.52;;;;;;;9.24;92.78;100491.91;4929838;29;20553;-75
2022/09/24 00:12:55;;;;;;;16.75;10.93;;;;;;;9.25;93.15;100483.13;4923438;29;20036;-75
2022/09/24 00:15:21;;;;;;;17.88;10.73;;;;;;;9.19;93.96;100484.88;4926160;29;20054;-75
2022/09/24 00:17:46;;;;;;;15.57;11.32;;;;;;;9.16;93.15;100482.25;4924645;29;20126;-75
2022/09/24 00:20:11;;;;;;;19.00;12.85;;;;;;;9.13;92.98;100482.28;4924874;29;20126;-75
2022/09/24 00:22:37;;;;;;;15.00;10.13;;;;;;;9.10;93.66;100478.78;4926885;29;20050;-75
2022/09/24 00:27:46;;;;;;;20.95;12.93;;;;;;;9.05;93.83;100465.59;4925607;29;20079;-75
2022/09/24 00:30:11;;;;;;;17.75;12.18;;;;;;;9.06;94.02;100462.09;4923986;29;20044;-75
2022/09/24 00:32:37;;;;;;;22.73;12.80;;;;;;;9.03;94.77;100464.72;4926271;29;20095;-75
2022/09/24 00:35:02;;;;;;;16.60;10.88;;;;;;;9.04;94.65;100461.22;4922650;29;20392;-75
2022/09/24 00:37:27;;;;;;;21.23;11.90;;;;;;;9.03;94.65;100464.72;4925758;29;20475;-75
2022/09/24 00:39:53;;;;;;;13.00;11.20;;;;;;;8.98;95.18;100448.06;4939107;29;20119;-75
2022/09/24 00:42:19;;;;;;;14.73;10.60;;;;;;;8.90;94.77;100447.19;4924369;29;20054;-75
2022/09/24 00:44:52;;;;;;;13.23;9.57;;;;;;;8.85;95.55;100449.81;4925516;29;20045;-75
2022/09/24 00:47:27;;;;;;;12.23;10.57;;;;;;;8.88;95.59;100448.94;4923358;29;20044;-75
2022/09/24 00:50:07;;;;;;;15.98;10.02;;;;;;;8.85;95.26;100443.69;4924419;29;20150;-75
2022/09/24 00:52:37;;;;;;;14.18;9.57;;;;;;;8.83;95.13;100448.06;4927254;29;20043;-75
2022/09/24 00:55:02;;;;;;;11.60;8.73;;;;;;;8.74;94.72;100449.81;4925201;29;20571;-75
2022/09/24 00:57:28;;;;;;;16.20;11.27;;;;;;;8.69;94.96;100446.31;4931744;29;20038;-75
2022/09/24 00:59:54;;;;;;;12.75;9.20;;;;;;;8.68;94.53;100439.31;4922887;29;20086;-75
2022/09/24 01:02:20;;;;;;;13.48;11.15;;;;;;;8.67;95.11;100441.94;4922967;29;20044;-75
2022/09/24 01:04:45;;;;;;;13.25;10.48;;;;;;;8.65;94.70;100439.31;4931160;29;20079;-75
2022/09/24 01:07:11;;;;;;;10.70;8.30;;;;;;;8.64;95.35;100436.66;4926549;29;20072;-75
2022/09/24 01:09:36;;;;;;;14.73;9.98;;;;;;;8.62;95.05;100441.03;4924229;29;20044;-75
2022/09/24 01:12:32;;;;;;;11.02;8.85;;;;;;;8.59;94.40;100443.69;4930044;29;20047;-75
2022/09/24 01:15:14;;;;;;;11.38;9.40;;;;;;;8.54;94.37;100431.41;4926032;29;20036;-75
2022/09/24 01:17:51;;;;;;;13.30;10.48;;;;;;;8.51;94.25;100431.41;4923698;29;20032;-75
2022/09/24 01:20:35;;;;;;;13.55;9.48;;;;;;;8.60;95.03;100434.94;4923573;29;20586;-75
2022/09/24 01:23:29;;;;;;;10.73;8.55;;;;;;;8.61;95.24;100434.91;4926651;29;20044;-75
2022/09/24 01:26:31;;;;;;;11.50;9.77;;;;;;;8.68;93.95;100418.25;4925833;29;20036;-75
2022/09/24 01:29:27;;;;;;;11.23;9.18;;;;;;;8.77;94.64;100420.00;4905027;29;20181;-75
2022/09/24 01:32:02;;;;;;;11.52;9.38;;;;;;;8.75;95.29;100422.66;4924718;29;20050;-75
2022/09/24 01:34:33;;;;;;;10.90;9.55;;;;;;;8.76;96.36;100415.63;4923999;29;20063;-75
2022/09/24 01:37:02;;;;;;;10.97;9.67;;;;;;;8.85;95.92;100414.72;4923193;29;20039;-75
2022/09/24 01:39:30;;;;;;;11.88;9.52;;;;;;;8.91;95.77;100409.47;4925536;29;20374;-75
2022/09/24 01:41:56;;;;;;;11.20;9.25;;;;;;;9.01;95.85;100405.94;4923180;29;20415;-75
2022/09/24 01:44:21;;;;;;;10.40;8.93;;;;;;;8.95;95.61;100412.09;4924469;29;20092;-75
2022/09/24 01:46:48;;;;;;;11.55;8.95;;;;;;;8.93;95.80;100413.88;4931046;29;20518;-75
2022/09/24 01:49:13;;;;;;;11.85;9.18;;;;;;;8.99;95.10;100405.94;4932086;29;20167;-74
2022/09/24 01:51:54;;;;;;;14.25;10.15;;;;;;;9.06;94.25;100405.94;4934085;29;20114;-74
2022/09/24 01:54:27;;;;;;;12.55;9.90;;;;;;;9.08;94.84;100396.28;4928413;29;20044;-75
2022/09/24 01:56:59;;;;;;;12.98;10.13;;;;;;;9.13;93.63;100395.38;4925363;29;20051;-74
2022/09/24 01:59:33;;;;;;;13.75;9.73;;;;;;;9.18;94.11;100398.00;4927553;29;20039;-74
2022/09/24 02:02:11;;;;;;;13.38;9.73;;;;;;;9.13;94.44;100400.66;4925873;29;20039;-75
2022/09/24 02:04:44;;;;;;;12.82;8.70;;;;;;;9.04;95.22;100400.69;4929016;29;20035;-74
2022/09/24 02:07:18;;;;;;;12.35;9.40;;;;;;;9.08;94.72;100394.50;4947051;29;20411;-75
2022/09/24 02:09:43;;;;;;;13.45;10.15;;;;;;;9.06;94.24;100393.63;4927941;29;20056;-75
2022/09/24 02:12:27;;;;;;;10.57;8.82;;;;;;;8.97;95.34;100398.94;4941987;29;20052;-74
2022/09/24 02:14:57;;;;;;;12.00;9.77;;;;;;;8.96;95.17;100397.16;4926685;29;20051;-75
2022/09/24 02:17:26;;;;;;;12.38;9.20;;;;;;;8.97;94.84;100398.94;4929412;29;20036;-75
2022/09/24 02:19:55;;;;;;;13.18;9.70;;;;;;;8.88;95.01;100393.66;4925598;29;20036;-75
2022/09/24 02:22:22;;;;;;;12.23;8.45;;;;;;;8.81;96.32;100397.22;4929865;29;20040;-75
2022/09/24 02:24:57;;;;;;;11.98;9.55;;;;;;;8.83;95.81;100401.59;4927576;29;20459;-74
2022/09/24 02:27:26;;;;;;;9.70;8.20;;;;;;;8.85;95.05;100393.69;4928673;29;20035;-74
2022/09/24 02:29:52;;;;;;;10.77;9.05;;;;;;;8.85;93.84;100393.69;4928503;29;20044;-74
2022/09/24 02:32:18;;;;;;;9.90;8.88;;;;;;;8.83;93.63;100392.78;4931834;29;20044;-74
2022/09/24 02:34:50;;;;;;;10.10;8.93;;;;;;;8.80;93.33;100391.03;4926781;29;20039;-74
2022/09/24 02:37:16;;;;;;;13.90;9.05;;;;;;;8.77;93.75;100386.66;4931120;29;20074;-74
2022/09/24 02:39:42;;;;;;;10.77;8.73;;;;;;;8.71;94.24;100391.06;4931269;29;20048;-74
2022/09/24 02:42:09;;;;;;;14.25;9.98;;;;;;;8.61;95.38;100392.81;4925779;29;20044;-75
2022/09/24 02:44:35;;;;;;;17.10;11.15;;;;;;;8.51;95.16;100381.44;4926924;29;20036;-75
2022/09/24 02:47:01;;;;;;;12.05;10.18;;;;;;;8.42;95.17;100383.19;4927342;29;20050;-75
2022/09/24 02:49:27;;;;;;;14.40;10.77;;;;;;;8.33;96.01;100384.91;4938216;29;20036;-75
2022/09/24 02:51:52;;;;;;;15.75;10.68;;;;;;;8.20;97.88;100385.78;4929134;29;20040;-75
2022/09/24 02:54:17;;;;;;;14.88;9.90;;;;;;;8.16;97.89;100384.00;4930385;29;20454;-74
2022/09/24 02:56:43;;;;;;;15.82;10.65;;;;;;;8.11;97.36;100388.38;4927131;29;20070;-75
2022/09/24 02:59:08;;;;;;;15.80;9.55;;;;;;;8.02;97.47;100384.00;4926287;29;20574;-74
2022/09/24 03:01:34;;;;;;;12.80;9.55;;;;;;;7.96;97.45;100390.97;4925845;29;20509;-74
2022/09/24 03:04:01;;;;;;;17.80;11.45;;;;;;;7.89;97.81;100380.47;4927618;29;20478;-74
2022/09/24 03:06:26;;;;;;;19.25;12.52;;;;;;;7.85;97.58;100377.81;4924799;29;20079;-75
2022/09/24 03:08:52;;;;;;;23.67;14.50;;;;;;;7.80;98.25;100377.78;4927159;29;20035;-75
2022/09/24 03:11:18;;;;;;;43.10;22.73;;;;;;;7.75;98.58;100379.53;4936755;29;20119;-75
2022/09/24 03:13:44;;;;;;;28.70;17.35;;;;;;;7.75;99.26;100373.41;4926563;29;20422;-75
2022/09/24 03:16:09;;;;;;;29.05;17.60;;;;;;;7.74;99.30;100380.41;4926725;29;20050;-75
2022/09/24 03:18:34;;;;;;;38.22;19.50;;;;;;;7.72;99.44;100374.28;4925186;29;20036;-75
2022/09/24 03:21:03;;;;;;;45.10;24.92;;;;;;;7.68;99.08;100377.78;4929174;29;20092;-75
2022/09/24 03:23:28;;;;;;;44.40;23.13;;;;;;;7.58;99.34;100376.84;4925202;29;20411;-74
2022/09/24 03:25:54;;;;;;;38.72;22.88;;;;;;;7.55;100.00;100375.97;4926770;29;20039;-75
2022/09/24 03:28:20;;;;;;;22.98;13.57;;;;;;;7.50;100.00;100369.84;4926053;29;20043;-75
2022/09/24 03:31:00;;;;;;;31.23;19.45;;;;;;;7.45;100.00;100375.94;4925588;29;20480;-74
2022/09/24 03:33:29;;;;;;;28.17;15.88;;;;;;;7.45;100.00;100370.69;4925103;29;20040;-75
2022/09/24 03:36:19;;;;;;;23.27;13.77;;;;;;;7.42;100.00;100365.41;4925454;29;20134;-75
2022/09/24 03:38:48;;;;;;;23.17;14.77;;;;;;;7.37;100.00;100361.91;4941243;29;20051;-75
2022/09/24 03:41:14;;;;;;;21.05;13.88;;;;;;;7.36;100.00;100361.88;4924015;29;20040;-74
2022/09/24 03:43:40;;;;;;;23.80;12.93;;;;;;;7.38;100.00;100361.00;4924367;29;20036;-74
2022/09/24 03:46:06;;;;;;;26.20;14.05;;;;;;;7.42;100.00;100360.16;4926543;29;20506;-74
2022/09/24 03:48:33;;;;;;;17.98;11.95;;;;;;;7.44;99.75;100362.78;4925513;29;20040;-75
2022/09/24 03:51:07;;;;;;;16.90;12.60;;;;;;;7.45;99.25;100362.81;4927821;29;20111;-75
2022/09/24 03:53:32;;;;;;;17.90;10.82;;;;;;;7.49;99.42;100360.19;4924192;29;20067;-74
2022/09/24 03:56:01;;;;;;;14.57;9.80;;;;;;;7.45;97.87;100357.56;4931324;29;20088;-75
2022/09/24 03:58:28;;;;;;;14.18;9.68;;;;;;;7.46;98.14;100361.03;4925410;29;20510;-75
2022/09/24 04:00:54;;;;;;;14.05;11.43;;;;;;;7.50;98.58;100348.81;4926312;29;20106;-74
2022/09/24 04:03:21;;;;;;;13.82;9.93;;;;;;;7.56;98.65;100351.47;4923671;29;20559;-74
2022/09/24 04:05:46;;;;;;;14.52;9.32;;;;;;;7.54;97.62;100350.56;4923927;29;20088;-75
2022/09/24 04:08:12;;;;;;;9.80;7.72;;;;;;;7.57;98.18;100355.84;4926172;29;20123;-75
2022/09/24 04:10:37;;;;;;;13.55;8.20;;;;;;;7.62;98.37;100352.38;4927263;29;20119;-75
2022/09/24 04:13:03;;;;;;;11.15;8.80;;;;;;;7.61;98.27;100361.09;4926130;29;20040;-75
2022/09/24 04:15:28;;;;;;;12.07;9.15;;;;;;;7.56;98.33;100356.72;4923259;29;20182;-75
2022/09/24 04:17:57;;;;;;;10.57;9.45;;;;;;;7.50;99.24;100352.31;4925792;29;20482;-74
2022/09/24 04:20:25;;;;;;;11.40;8.90;;;;;;;7.51;99.37;100353.19;4926854;29;20039;-75
2022/09/24 04:22:53;;;;;;;9.85;8.07;;;;;;;7.55;98.02;100344.47;4929653;29;20094;-75
2022/09/24 04:25:19;;;;;;;11.85;10.55;;;;;;;7.59;98.54;100340.97;4945703;28;20078;-75
2022/09/24 04:27:45;;;;;;;18.50;11.13;;;;;;;7.64;97.67;100336.59;4925575;29;20075;-75
2022/09/24 04:30:12;;;;;;;12.98;9.50;;;;;;;7.64;97.84;100341.84;4926554;29;20035;-75
2022/09/24 04:32:37;;;;;;;11.80;9.40;;;;;;;7.61;97.13;100341.84;4923582;29;20479;-75
2022/09/24 04:35:03;;;;;;;10.68;9.10;;;;;;;7.61;97.75;100339.22;4925476;29;20130;-75
2022/09/24 04:37:28;;;;;;;10.77;7.70;;;;;;;7.57;98.33;100332.19;4924923;29;20071;-75
2022/09/24 04:39:53;;;;;;;15.48;9.52;;;;;;;7.57;98.39;100332.19;4924282;29;20043;-75
2022/09/24 04:42:19;;;;;;;10.32;7.95;;;;;;;7.59;99.27;100336.56;4925739;29;20039;-74
2022/09/24 04:44:47;;;;;;;11.07;8.65;;;;;;;7.59;99.02;100336.56;4923122;29;20044;-76
2022/09/24 04:47:13;;;;;;;9.40;7.47;;;;;;;7.63;98.86;100337.47;4925766;29;20077;-75
2022/09/24 04:49:39;;;;;;;12.75;9.52;;;;;;;7.71;99.07;100332.25;4924287;29;20513;-74
2022/09/24 04:52:05;;;;;;;9.15;8.23;;;;;;;7.77;97.93;100329.63;4926804;29;20043;-74
2022/09/24 04:54:30;;;;;;;11.90;8.82;;;;;;;7.82;98.17;100331.38;4923825;29;20040;-74
2022/09/24 04:56:56;;;;;;;12.63;8.18;;;;;;;7.86;98.09;100329.66;4925827;29;20062;-74
2022/09/24 04:59:22;;;;;;;9.10;8.15;;;;;;;7.91;98.04;100330.50;4927604;29;20042;-75
2022/09/24 05:01:47;;;;;;;10.73;9.63;;;;;;;7.85;97.97;100328.75;4924517;29;20031;-74
2022/09/24 05:04:12;;;;;;;11.77;8.88;;;;;;;7.87;98.56;100332.28;4930493;29;20035;-75
2022/09/24 05:06:38;;;;;;;10.98;9.00;;;;;;;7.93;98.26;100323.50;4922639;29;20050;-75
2022/09/24 05:09:03;;;;;;;10.60;9.50;;;;;;;8.00;98.36;100330.53;4923307;29;20068;-75
2022/09/24 05:11:28;;;;;;;9.77;8.77;;;;;;;8.04;98.11;100334.03;4922995;29;20052;-75
2022/09/24 05:13:54;;;;;;;12.23;8.95;;;;;;;8.10;97.84;100321.78;4926118;29;20039;-75
2022/09/24 05:16:19;;;;;;;9.77;7.85;;;;;;;8.17;97.35;100317.41;4922888;29;20047;-75
2022/09/24 05:18:44;;;;;;;13.18;9.15;;;;;;;8.26;97.48;100316.53;4925535;29;20047;-75
2022/09/24 05:21:10;;;;;;;9.32;8.43;;;;;;;8.21;96.98;100319.16;4928479;29;20034;-75
2022/09/24 05:23:35;;;;;;;8.77;7.47;;;;;;;8.21;98.33;100318.28;4929475;29;20093;-74
2022/09/24 05:28:44;;;;;;;10.25;8.85;;;;;;;8.47;98.58;100326.22;4928342;29;20079;-74
2022/09/24 05:31:09;;;;;;;10.27;7.93;;;;;;;8.58;98.13;100316.53;4925534;29;20052;-75
2022/09/24 05:33:36;;;;;;;10.20;8.07;;;;;;;8.71;98.08;100323.53;4932851;29;20067;-74
2022/09/24 05:36:02;;;;;;;13.10;9.18;;;;;;;8.88;96.49;100330.50;4933827;29;20035;-75
2022/09/24 05:38:28;;;;;;;9.60;8.32;;;;;;;9.02;96.00;100323.47;4930579;29;20044;-75
2022/09/24 05:40:54;;;;;;;10.38;9.38;;;;;;;9.11;95.49;100330.44;4929288;29;20178;-75
2022/09/24 05:43:19;;;;;;;12.35;8.65;;;;;;;9.19;95.11;100337.44;4928709;29;20542;-75
2022/09/24 05:45:45;;;;;;;13.13;8.90;;;;;;;9.29;94.98;100342.66;4929333;29;20416;-75
2022/09/24 05:48:10;;;;;;;10.25;8.90;;;;;;;9.37;94.42;100338.25;4937279;29;20506;-74
2022/09/24 05:50:36;;;;;;;11.65;7.82;;;;;;;9.42;93.87;100336.47;4933933;29;20538;-75
2022/09/24 05:53:02;;;;;;;9.18;8.25;;;;;;;9.34;93.90;100336.50;4929897;29;20167;-75
2022/09/24 05:55:28;;;;;;;9.50;8.10;;;;;;;9.41;95.03;100338.22;4928299;29;20451;-75
2022/09/24 05:57:53;;;;;;;9.52;8.30;;;;;;;9.50;93.93;100341.72;4927772;29;20123;-75
2022/09/24 06:00:19;;;;;;;12.55;9.27;;;;;;;9.55;94.40;100346.06;4927136;29;20519;-75
2022/09/24 06:02:44;;;;;;;10.13;8.52;;;;;;;9.64;94.77;100350.41;4928433;29;20040;-75
2022/09/24 06:05:10;;;;;;;11.88;8.35;;;;;;;9.73;94.18;100354.78;4924761;29;20051;-75
2022/09/24 06:07:35;;;;;;;9.20;8.27;;;;;;;9.87;93.76;100350.28;4928884;29;20099;-75
2022/09/24 06:10:01;;;;;;;11.32;8.35;;;;;;;10.01;93.10;100355.47;4926673;29;20040;-75
2022/09/24 06:12:26;;;;;;;11.38;8.57;;;;;;;10.10;92.50;100350.13;4927641;29;20043;-75
2022/09/24 06:14:54;;;;;;;8.27;7.47;;;;;;;10.20;92.74;100357.09;4927552;29;20396;-75
2022/09/24 06:17:20;;;;;;;11.00;7.78;;;;;;;10.24;92.32;100356.19;4926293;29;20052;-75
2022/09/24 06:19:46;;;;;;;10.07;8.07;;;;;;;10.14;93.39;100353.59;4928773;29;20483;-75
2022/09/24 06:22:12;;;;;;;9.88;7.57;;;;;;;10.20;93.61;100357.09;4931005;29;20050;-75
2022/09/24 06:24:38;;;;;;;9.60;8.60;;;;;;;10.29;93.28;100358.81;4927952;29;20075;-75
2022/09/24 06:27:03;;;;;;;14.05;9.77;;;;;;;10.47;93.17;100360.44;4927204;29;20044;-75
2022/09/24 06:29:29;;;;;;;13.20;8.80;;;;;;;10.69;91.47;100355.84;4926604;29;20407;-75
2022/09/24 06:31:54;;;;;;;14.07;9.82;;;;;;;10.85;89.78;100357.44;4927324;29;20043;-75
2022/09/24 06:34:19;;;;;;;9.45;8.45;;;;;;;10.96;88.08;100352.91;4925217;29;20516;-75
2022/09/24 06:36:45;;;;;;;10.50;9.40;;;;;;;11.05;87.70;100356.34;4928392;29;20047;-75
2022/09/24 06:39:10;;;;;;;9.10;8.05;;;;;;;11.13;87.19;100357.13;4925978;29;20044;-75
2022/09/24 06:41:35;;;;;;;9.38;7.85;;;;;;;11.20;86.46;100350.91;4927047;29;20054;-75
2022/09/24 06:44:01;;;;;;;10.70;7.75;;;;;;;11.24;85.40;100352.63;4927025;29;20051;-75
2022/09/24 06:46:26;;;;;;;9.88;8.10;;;;;;;11.22;85.57;100346.47;4926116;29;20044;-75
2022/09/24 06:48:53;;;;;;;9.07;7.97;;;;;;;11.22;85.10;100351.75;4928085;29;20035;-75
2022/09/24 06:51:19;;;;;;;10.85;7.65;;;;;;;11.16;84.91;100354.44;4926295;29;20079;-75
2022/09/24 06:53:44;;;;;;;8.77;7.35;;;;;;;11.11;85.05;100348.38;4929230;29;20407;-75
2022/09/24 06:56:10;;;;;;;10.35;8.98;;;;;;;11.06;84.87;100344.91;4925914;29;20127;-75
2022/09/24 06:58:35;;;;;;;8.68;7.82;;;;;;;11.08;84.99;100348.38;4927067;29;20123;-74
2022/09/24 07:01:01;;;;;;;8.82;8.02;;;;;;;11.11;85.39;100345.75;4930961;29;20056;-74
2022/09/24 07:03:30;;;;;;;8.38;7.53;;;;;;;11.13;84.86;100343.94;4931603;29;20043;-75
2022/09/24 07:06:00;;;;;;;11.23;8.05;;;;;;;11.14;84.73;100354.50;4932744;29;20044;-75
2022/09/24 07:08:25;;;;;;;10.48;9.43;;;;;;;11.17;84.85;100353.56;4927923;29;20050;-75
2022/09/24 07:10:51;;;;;;;11.38;7.72;;;;;;;11.20;84.55;100356.19;4926918;29;20452;-75
2022/09/24 07:13:17;;;;;;;9.23;8.35;;;;;;;11.24;84.78;100360.56;4924969;29;20500;-75
2022/09/24 07:15:43;;;;;;;11.93;9.38;;;;;;;11.34;84.49;100356.00;4926487;29;20616;-75
2022/09/24 07:18:09;;;;;;;14.07;8.60;;;;;;;11.50;84.43;100356.69;4930268;29;20099;-75
2022/09/24 07:20:37;;;;;;;11.80;7.75;;;;;;;11.57;84.18;100351.31;4929787;29;20440;-74
2022/09/24 07:23:04;;;;;;;10.85;8.88;;;;;;;11.72;84.14;100354.66;4931394;29;20492;-75
2022/09/24 07:25:30;;;;;;;10.38;8.45;;;;;;;11.82;83.15;100349.22;4934071;29;20467;-75
2022/09/24 07:28:02;;;;;;;8.07;7.28;;;;;;;11.90;82.70;100353.56;4926811;29;20048;-74
2022/09/24 07:30:27;;;;;;;8.93;8.02;;;;;;;11.99;82.22;100350.78;4930837;29;20474;-75
2022/09/24 07:32:56;;;;;;;7.97;7.18;;;;;;;12.13;81.35;100346.16;4930275;29;20067;-75
2022/09/24 07:35:22;;;;;;;9.40;8.50;;;;;;;12.32;80.92;100346.75;4922989;29;20687;-75
2022/09/24 07:37:47;;;;;;;10.43;8.95;;;;;;;12.54;79.72;100341.94;4929598;29;20114;-75
2022/09/24 07:40:13;;;;;;;9.40;7.95;;;;;;;12.71;79.11;100342.53;4927054;29;20123;-75
2022/09/24 07:42:45;;;;;;;9.15;8.35;;;;;;;12.89;79.41;100337.78;4931099;29;20047;-75
2022/09/24 07:45:11;;;;;;;9.93;7.47;;;;;;;12.97;78.89;100346.50;4929895;29;20036;-75
2022/09/24 07:47:36;;;;;;;7.53;6.82;;;;;;;13.13;78.21;100347.94;4925008;29;20074;-75
2022/09/24 07:50:02;;;;;;;8.05;6.78;;;;;;;13.11;78.04;100349.72;4927166;29;20051;-76
2022/09/24 07:52:27;;;;;;;9.30;8.40;;;;;;;13.17;77.79;100356.69;4932571;29;20044;-75
2022/09/24 07:54:54;;;;;;;8.57;7.45;;;;;;;13.28;77.87;100351.19;4935842;29;20052;-75
2022/09/24 07:57:19;;;;;;;8.05;7.25;;;;;;;13.22;77.22;100351.28;4928955;29;20052;-74
2022/09/24 07:59:44;;;;;;;8.70;7.68;;;;;;;13.23;77.61;100350.38;4927992;29;20091;-75
2022/09/24 08:02:15;;;;;;;7.30;6.60;;;;;;;13.32;77.40;100352.91;4928571;29;20031;-75
2022/09/24 08:04:41;;;;;;;10.07;8.27;;;;;;;13.42;77.37;100356.25;4929688;29;20044;-75
2022/09/24 08:07:06;;;;;;;9.07;8.18;;;;;;;13.49;76.95;100350.78;4929691;29;20126;-75
2022/09/24 08:09:32;;;;;;;10.63;7.78;;;;;;;13.52;77.63;100353.38;4929069;29;20083;-75
2022/09/24 08:11:57;;;;;;;8.32;6.82;;;;;;;13.68;77.01;100356.56;4928648;29;20043;-75
2022/09/24 08:14:22;;;;;;;8.23;7.43;;;;;;;13.75;75.25;100360.84;4931484;29;20054;-75
2022/09/24 08:16:48;;;;;;;9.52;8.60;;;;;;;13.66;75.38;100357.50;4925513;29;20139;-75
2022/09/24 08:19:14;;;;;;;9.07;8.13;;;;;;;13.78;75.64;100358.09;4926620;29;20035;-75
2022/09/24 08:21:39;;;;;;;8.75;7.95;;;;;;;13.94;74.79;100352.47;4930071;29;20036;-75
2022/09/24 08:24:04;;;;;;;8.57;7.80;;;;;;;14.06;74.05;100359.25;4919897;29;20048;-75
2022/09/24 08:26:29;;;;;;;9.60;7.75;;;;;;;14.13;72.10;100348.47;4926402;29;20040;-75
2022/09/24 08:28:55;;;;;;;8.48;7.63;;;;;;;14.23;73.68;100351.78;4926708;29;20048;-75
2022/09/24 08:31:20;;;;;;;7.72;7.03;;;;;;;14.30;73.50;100349.81;4930217;29;20036;-75
2022/09/24 08:33:49;;;;;;;8.65;7.80;;;;;;;14.40;73.28;100348.69;4923538;29;20126;-75
2022/09/24 08:36:14;;;;;;;8.90;8.00;;;;;;;14.48;73.13;100344.06;4923381;29;20047;-75
2022/09/24 08:38:40;;;;;;;7.85;7.07;;;;;;;14.54;73.42;100341.31;4924183;29;20040;-75
2022/09/24 08:41:11;;;;;;;7.82;7.13;;;;;;;14.65;72.77;100349.00;4930342;29;20047;-75
2022/09/24 08:43:54;;;;;;;10.07;7.07;;;;;;;14.73;72.78;100336.38;4925483;29;20043;-75
2022/09/24 08:49:15;;;;;;;8.35;7.55;;;;;;;14.97;71.99;100340.16;4928873;29;19942;-75
2022/09/24 08:51:50;;;;;;;8.77;7.80;;;;;;;15.19;71.34;100336.91;4931334;29;20042;-75
2022/09/24 08:54:16;;;;;;;8.05;7.28;;;;;;;15.34;71.14;100339.13;4922387;29;20102;-75
2022/09/24 08:56:45;;;;;;;10.07;7.75;;;;;;;15.43;69.84;100333.56;4924352;29;20044;-75
2022/09/24 08:59:31;;;;;;;8.25;7.55;;;;;;;15.52;69.57;100338.59;4923101;29;20127;-75
2022/09/24 09:02:22;;;;;;;10.45;7.57;;;;;;;15.63;69.46;100340.06;4940005;29;20094;-75
2022/09/24 09:05:05;;;;;;;7.70;7.00;;;;;;;15.80;68.83;100342.22;4925570;29;20510;-75
2022/09/24 09:07:44;;;;;;;9.38;8.43;;;;;;;15.92;67.53;100347.19;4924748;29;20547;-75
2022/09/24 09:10:15;;;;;;;8.40;7.70;;;;;;;16.02;68.27;100350.44;4923545;29;20503;-75
2022/09/24 09:12:52;;;;;;;8.85;8.05;;;;;;;16.14;66.42;100353.59;4923907;29;20054;-76
2022/09/24 09:15:23;;;;;;;9.07;8.25;;;;;;;16.11;64.77;100351.03;4925179;29;20035;-75
2022/09/24 09:18:14;;;;;;;8.00;7.20;;;;;;;16.20;65.96;100348.06;4927801;29;20050;-75
2022/09/24 09:20:43;;;;;;;8.55;7.72;;;;;;;16.45;65.34;100352.56;4924386;29;20583;-75
2022/09/24 09:23:17;;;;;;;8.55;7.80;;;;;;;16.57;63.61;100352.16;4932491;29;20044;-75
2022/09/24 09:25:53;;;;;;;9.48;8.48;;;;;;;16.60;63.17;100349.38;4923484;29;20047;-75
2022/09/24 09:28:19;;;;;;;8.95;8.15;;;;;;;16.74;63.41;100358.72;4925157;29;20050;-75
2022/09/24 09:31:20;;;;;;;9.45;8.52;;;;;;;16.83;61.79;100347.78;4931888;29;20036;-75
2022/09/24 09:34:16;;;;;;;8.55;7.78;;;;;;;17.02;62.06;100348.00;4948131;28;20058;-75
2022/09/24 09:36:55;;;;;;;8.60;7.70;;;;;;;17.09;62.68;100349.53;4924838;29;20050;-75
2022/09/24 09:39:32;;;;;;;8.93;8.13;;;;;;;17.12;61.78;100348.53;4937911;29;20035;-75
2022/09/24 09:42:28;;;;;;;9.40;8.50;;;;;;;17.31;60.54;100345.13;4921448;29;20036;-75
2022/09/24 09:44:54;;;;;;;9.07;8.27;;;;;;;17.34;57.74;100349.47;4925051;29;20044;-75
2022/09/24 09:47:46;;;;;;;8.35;7.22;;;;;;;17.28;57.09;100339.91;4925047;29;20519;-76
2022/09/24 09:50:25;;;;;;;8.50;7.65;;;;;;;17.28;58.05;100339.03;4926190;29;20035;-75
2022/09/24 09:52:50;;;;;;;9.60;7.78;;;;;;;17.48;57.32;100346.31;4928504;29;20040;-75
2022/09/24 09:55:28;;;;;;;8.27;7.55;;;;;;;17.46;56.99;100333.03;4925289;29;20095;-75
2022/09/24 09:58:09;;;;;;;8.63;7.82;;;;;;;17.59;56.34;100340.56;4924945;29;20049;-75
2022/09/24 10:00:35;;;;;;;9.05;8.25;;;;;;;17.77;57.39;100334.53;4923714;29;20495;-76
2022/09/24 10:03:02;;;;;;;10.65;7.50;;;;;;;17.98;57.02;100334.66;4923220;29;20043;-76
2022/09/24 10:05:28;;;;;;;8.73;7.78;;;;;;;18.07;56.40;100335.13;4925016;29;20046;-76
2022/09/24 10:07:56;;;;;;;8.88;8.07;;;;;;;18.15;56.81;100332.16;4923487;29;20048;-75
2022/09/24 10:10:23;;;;;;;8.40;7.70;;;;;;;18.33;57.54;100330.53;4926846;29;20047;-76
2022/09/24 10:13:07;;;;;;;8.05;7.43;;;;;;;18.51;56.60;100334.25;4947831;29;20555;-76
2022/09/24 10:15:33;;;;;;;11.52;7.95;;;;;;;18.65;56.93;100321.16;4929932;29;20045;-75
2022/09/24 10:17:59;;;;;;;8.30;7.70;;;;;;;18.68;55.95;100329.06;4925941;29;20411;-76
2022/09/24 10:20:30;;;;;;;8.30;7.63;;;;;;;18.65;54.72;100325.63;4926908;29;20046;-77
2022/09/24 10:23:05;;;;;;;8.77;7.38;;;;;;;18.60;54.77;100317.81;4933970;29;20094;-76
2022/09/24 10:25:32;;;;;;;8.27;6.97;;;;;;;18.61;54.36;100324.91;4927460;29;20037;-79
2022/09/24 10:30:54;;;;;;;7.55;6.85;;;;;;;18.60;55.00;100324.03;4927465;29;20087;-76
2022/09/24 10:33:20;;;;;;;8.40;7.53;;;;;;;18.57;54.23;100325.97;4925570;29;20044;-76
2022/09/24 10:35:45;;;;;;;8.20;7.50;;;;;;;18.47;55.09;100328.16;4928218;29;20103;-77
2022/09/24 10:38:19;;;;;;;8.13;7.43;;;;;;;18.56;54.34;100324.22;4926369;29;20036;-77
2022/09/24 10:40:45;;;;;;;7.85;7.15;;;;;;;18.67;54.11;100318.41;4924558;29;20110;-77
2022/09/24 10:43:17;;;;;;;7.57;6.88;;;;;;;18.62;51.56;100316.81;4928305;29;20570;-76
2022/09/24 10:45:50;;;;;;;7.65;6.95;;;;;;;18.60;53.43;100320.47;4926336;29;20137;-76
2022/09/24 10:48:32;;;;;;;7.57;6.78;;;;;;;18.68;53.51;100313.03;4925969;29;20044;-76
2022/09/24 10:51:38;;;;;;;8.93;8.13;;;;;;;18.75;52.07;100310.97;4928217;29;20494;-76
2022/09/24 10:54:35;;;;;;;8.55;7.60;;;;;;;18.43;53.88;100320.34;4925055;28;20067;-77
2022/09/24 10:57:18;;;;;;;11.40;8.25;;;;;;;18.55;55.10;100309.16;4926157;29;20044;-76
2022/09/24 11:00:10;;;;;;;8.88;7.22;;;;;;;18.56;53.34;100313.53;4939767;29;20032;-76
2022/09/24 11:03:06;;;;;;;7.20;6.50;;;;;;;18.60;52.87;100307.09;4940290;29;20040;-77
2022/09/24 11:05:44;;;;;;;6.75;6.15;;;;;;;18.38;53.21;100312.50;4928011;29;20131;-77
2022/09/24 11:08:28;;;;;;;6.75;6.15;;;;;;;18.49;53.75;100320.06;4929820;29;20039;-77
2022/09/24 11:11:29;;;;;;;6.90;6.30;;;;;;;18.54;52.72;100318.06;4931060;29;20131;-77
2022/09/24 11:14:18;;;;;;;8.40;6.78;;;;;;;18.42;52.41;100313.25;4924984;29;20051;-76
2022/09/24 11:16:58;;;;;;;7.47;6.78;;;;;;;18.43;54.40;100315.00;4925809;29;20162;-77
2022/09/24 11:19:47;;;;;;;7.80;7.10;;;;;;;18.49;53.18;100317.41;4927405;29;20036;-76
2022/09/24 11:22:32;;;;;;;9.18;6.80;;;;;;;18.57;53.40;100317.94;4933181;29;20044;-77
2022/09/24 11:25:18;;;;;;;7.43;6.72;;;;;;;18.66;52.35;100314.88;4928322;29;20027;-76
2022/09/24 11:27:50;;;;;;;10.13;8.20;;;;;;;18.90;52.84;100309.44;4927037;29;20487;-77
2022/09/24 11:30:20;;;;;;;9.23;8.32;;;;;;;19.13;52.29;100303.94;4927629;29;20561;-76
2022/09/24 11:33:17;;;;;;;8.55;7.85;;;;;;;19.48;51.58;100304.13;4930771;29;20615;-76
2022/09/24 11:35:56;;;;;;;8.38;7.65;;;;;;;19.94;50.83;100301.97;4918295;29;20130;-76
2022/09/24 11:38:41;;;;;;;9.43;7.30;;;;;;;20.32;50.31;100304.56;4927854;29;20088;-76
2022/09/24 11:41:58;;;;;;;8.32;7.10;;;;;;;20.53;48.07;100292.75;4929886;29;20075;-76
2022/09/24 11:44:53;;;;;;;7.82;7.13;;;;;;;20.62;47.76;100288.78;4928939;29;20054;-76
2022/09/24 11:47:25;;;;;;;8.63;7.63;;;;;;;20.75;49.31;100292.56;4933697;29;20035;-75